createdAt,value
2023-03-26T00:00:38.232Z,7.27
2023-03-26T00:03:27.846Z,7.31
2023-03-26T00:06:17.520Z,7.23
2023-03-26T00:09:09.013Z,7.16
2023-03-26T00:11:57.756Z,7.07
2023-03-26T00:14:46.304Z,7.06
2023-03-26T00:17:34.913Z,7.13
2023-03-26T00:20:23.968Z,7.13
2023-03-26T00:23:12.303Z,7.09
2023-03-26T00:26:02.823Z,7.11
2023-03-26T00:28:51.841Z,7.09
2023-03-26T00:31:41.132Z,7.09
2023-03-26T00:34:29.508Z,7.02
2023-03-26T00:37:18.360Z,7.00
2023-03-26T00:40:11.034Z,6.90
2023-03-26T00:43:02.371Z,6.93
2023-03-26T00:45:52.764Z,6.92
2023-03-26T00:48:45.877Z,6.92
2023-03-26T00:51:35.070Z,6.85
2023-03-26T00:54:23.463Z,6.91
2023-03-26T00:57:18.178Z,6.92
2023-03-26T01:00:17.564Z,6.85
2023-03-26T01:03:07.216Z,6.79
2023-03-26T01:06:02.701Z,6.85
2023-03-26T01:08:54.652Z,6.81
2023-03-26T01:11:43.098Z,6.84
2023-03-26T01:14:31.873Z,6.80
2023-03-26T01:17:22.155Z,6.82
2023-03-26T01:20:15.004Z,6.79
2023-03-26T01:23:06.216Z,6.87
2023-03-26T01:25:59.435Z,6.78
2023-03-26T01:28:48.645Z,6.81
2023-03-26T01:31:42.033Z,6.82
2023-03-26T01:34:37.478Z,6.83
2023-03-26T01:37:30.545Z,6.73
2023-03-26T01:40:24.524Z,6.77
2023-03-26T01:43:22.130Z,6.68
2023-03-26T01:46:12.352Z,6.70
2023-03-26T01:49:00.999Z,6.75
2023-03-26T01:51:49.492Z,6.76
2023-03-26T01:54:37.936Z,6.68
2023-03-26T01:57:35.952Z,6.68
2023-03-26T02:00:29.846Z,6.64
2023-03-26T02:03:26.521Z,6.76
2023-03-26T02:06:18.411Z,6.72
2023-03-26T02:09:09.107Z,6.69
2023-03-26T02:11:58.221Z,6.74
2023-03-26T02:14:47.075Z,6.79
2023-03-26T02:17:40.354Z,6.87
2023-03-26T02:20:30.399Z,6.86
2023-03-26T02:23:18.778Z,6.72
2023-03-26T02:26:08.899Z,6.69
2023-03-26T02:29:02.905Z,6.73
2023-03-26T02:31:51.543Z,6.72
2023-03-26T02:34:42.598Z,6.65
2023-03-26T02:37:33.867Z,6.66
2023-03-26T02:40:30.198Z,6.70
2023-03-26T02:43:19.613Z,6.59
2023-03-26T02:46:09.225Z,6.50
2023-03-26T02:49:12.688Z,6.50
2023-03-26T02:52:06.526Z,6.51
2023-03-26T02:54:56.244Z,6.50
2023-03-26T02:57:46.513Z,6.38
2023-03-26T03:00:40.329Z,6.32
2023-03-26T03:03:51.550Z,6.32
2023-03-26T03:06:57.492Z,6.26
2023-03-26T03:09:50.688Z,6.24
2023-03-26T03:13:08.322Z,6.21
2023-03-26T03:15:57.131Z,6.24
2023-03-26T03:18:47.543Z,6.21
2023-03-26T03:21:36.166Z,6.30
2023-03-26T03:24:24.583Z,6.29
2023-03-26T03:27:15.602Z,6.30
2023-03-26T03:30:11.870Z,6.33
2023-03-26T03:33:20.375Z,6.39
2023-03-26T03:36:19.958Z,6.46
2023-03-26T03:39:17.110Z,6.38
2023-03-26T03:42:05.815Z,6.40
2023-03-26T03:44:57.258Z,6.43
2023-03-26T03:48:04.035Z,6.44
2023-03-26T03:50:59.698Z,6.41
2023-03-26T03:53:52.791Z,6.35
2023-03-26T03:56:53.352Z,6.32
2023-03-26T04:00:01.798Z,6.39
2023-03-26T04:03:06.375Z,6.32
2023-03-26T04:05:55.923Z,6.43
2023-03-26T04:08:47.872Z,6.39
2023-03-26T04:11:36.481Z,6.33
2023-03-26T04:14:50.922Z,6.29
2023-03-26T04:17:44.987Z,6.25
2023-03-26T04:20:35.641Z,6.21
2023-03-26T04:23:24.554Z,6.19
2023-03-26T04:26:19.930Z,6.19
2023-03-26T04:29:43.042Z,6.17
2023-03-26T04:32:38.674Z,6.15
2023-03-26T04:35:30.385Z,6.21
2023-03-26T04:38:19.639Z,6.29
2023-03-26T04:41:11.764Z,6.20
2023-03-26T04:44:17.210Z,6.06
2023-03-26T04:47:13.833Z,6.09
2023-03-26T04:50:08.161Z,6.26
2023-03-26T04:52:59.699Z,6.39
2023-03-26T04:56:10.629Z,6.40
2023-03-26T04:59:34.514Z,6.14
2023-03-26T05:02:26.181Z,6.11
2023-03-26T05:05:17.183Z,6.08
2023-03-26T05:08:07.660Z,6.02
2023-03-26T05:10:56.598Z,6.05
2023-03-26T05:13:52.120Z,6.14
2023-03-26T05:16:41.507Z,6.14
2023-03-26T05:19:30.898Z,6.29
2023-03-26T05:22:19.475Z,6.45
2023-03-26T05:25:29.212Z,6.62
2023-03-26T05:28:20.785Z,6.70
2023-03-26T05:31:16.905Z,6.79
2023-03-26T05:34:07.816Z,6.82
2023-03-26T05:36:56.331Z,6.86
2023-03-26T05:39:57.657Z,6.91
2023-03-26T05:43:05.451Z,6.98
2023-03-26T05:45:56.474Z,7.03
2023-03-26T05:48:52.710Z,7.01
2023-03-26T05:51:41.349Z,7.07
2023-03-26T05:54:52.040Z,7.08
2023-03-26T05:57:58.649Z,7.09
2023-03-26T06:01:09.223Z,7.09
2023-03-26T06:04:18.586Z,7.08
2023-03-26T06:07:23.031Z,7.02
2023-03-26T06:10:26.449Z,7.16
2023-03-26T06:13:16.167Z,7.25
2023-03-26T06:16:05.782Z,7.30
2023-03-26T06:19:01.101Z,7.36
2023-03-26T06:22:16.045Z,7.41
2023-03-26T06:25:33.567Z,7.41
2023-03-26T06:28:33.415Z,7.47
2023-03-26T06:32:18.306Z,7.49
2023-03-26T06:35:15.668Z,7.54
2023-03-26T06:38:04.259Z,7.54
2023-03-26T06:40:53.239Z,7.50
2023-03-26T06:44:01.839Z,7.55
2023-03-26T06:47:15.857Z,7.57
2023-03-26T06:50:23.975Z,7.59
2023-03-26T06:53:30.755Z,7.65
2023-03-26T06:56:32.200Z,7.58
2023-03-26T06:59:34.055Z,7.57
2023-03-26T07:02:40.956Z,7.64
2023-03-26T07:06:06.986Z,7.66
2023-03-26T07:09:18.218Z,7.64
2023-03-26T07:12:07.348Z,7.67
2023-03-26T07:15:00.303Z,7.72
2023-03-26T07:18:11.584Z,7.80
2023-03-26T07:21:02.146Z,7.91
2023-03-26T07:23:56.590Z,7.87
2023-03-26T07:27:05.012Z,7.96
2023-03-26T07:30:00.822Z,7.99
2023-03-26T07:33:03.928Z,8.06
2023-03-26T07:36:26.179Z,8.04
2023-03-26T07:39:42.982Z,8.05
2023-03-26T07:42:54.270Z,8.09
2023-03-26T07:46:12.863Z,8.14
2023-03-26T07:49:13.205Z,8.14
2023-03-26T07:52:15.416Z,8.17
2023-03-26T07:55:28.437Z,8.27
2023-03-26T07:59:00.946Z,8.35
2023-03-26T08:02:25.128Z,8.41
2023-03-26T08:05:26.260Z,8.47
2023-03-26T08:08:39.364Z,8.50
2023-03-26T08:11:51.296Z,8.53
2023-03-26T08:14:47.322Z,8.56
2023-03-26T08:17:39.011Z,8.66
2023-03-26T08:20:34.274Z,8.79
2023-03-26T08:23:27.615Z,8.80
2023-03-26T08:26:18.425Z,8.74
2023-03-26T08:29:18.120Z,8.66
2023-03-26T08:32:09.613Z,8.71
2023-03-26T08:35:00.143Z,8.62
2023-03-26T08:37:48.551Z,8.61
2023-03-26T08:40:53.705Z,8.59
2023-03-26T08:44:14.984Z,8.84
2023-03-26T08:47:29.028Z,8.72
2023-03-26T08:50:42.149Z,8.80
2023-03-26T08:53:49.117Z,8.87
2023-03-26T08:56:45.735Z,8.85
2023-03-26T08:59:50.867Z,8.88
2023-03-26T09:03:10.890Z,8.84
2023-03-26T09:06:14.029Z,8.92
2023-03-26T09:09:25.895Z,8.87
2023-03-26T09:12:50.682Z,8.75
2023-03-26T09:16:05.494Z,8.84
2023-03-26T09:19:24.665Z,8.95
2023-03-26T09:22:27.757Z,8.88
2023-03-26T09:25:34.609Z,8.92
2023-03-26T09:28:59.607Z,8.98
2023-03-26T09:32:11.500Z,8.88
2023-03-26T09:35:15.751Z,8.96
2023-03-26T09:38:12.811Z,8.94
2023-03-26T09:41:07.522Z,8.54
2023-03-26T09:44:37.008Z,8.52
2023-03-26T09:47:40.663Z,8.31
2023-03-26T09:50:43.422Z,8.23
2023-03-26T09:53:44.447Z,8.18
2023-03-26T09:56:39.689Z,8.39
2023-03-26T09:59:40.170Z,8.34
2023-03-26T10:02:45.867Z,8.34
2023-03-26T10:06:01.928Z,8.31
2023-03-26T10:08:56.936Z,8.41
2023-03-26T10:11:57.524Z,8.28
2023-03-26T10:14:50.688Z,8.26
2023-03-26T10:17:47.768Z,8.42
2023-03-26T10:20:50.442Z,8.59
2023-03-26T10:24:00.077Z,8.32
2023-03-26T10:27:13.017Z,8.29
2023-03-26T10:30:27.041Z,8.24
2023-03-26T10:33:23.985Z,8.27
2023-03-26T10:36:26.840Z,8.40
2023-03-26T10:39:42.419Z,8.56
2023-03-26T10:42:56.812Z,8.50
2023-03-26T10:46:14.978Z,8.36
2023-03-26T10:49:34.199Z,8.52
2023-03-26T10:52:24.836Z,8.64
2023-03-26T10:55:19.089Z,8.50
2023-03-26T10:58:14.449Z,8.55
2023-03-26T11:01:06.443Z,8.39
2023-03-26T11:03:55.759Z,8.52
2023-03-26T11:06:48.770Z,8.57
2023-03-26T11:09:42.395Z,8.66
2023-03-26T11:12:36.717Z,8.82
2023-03-26T11:15:28.087Z,8.71
2023-03-26T11:18:19.488Z,8.73
2023-03-26T11:21:19.451Z,8.69
2023-03-26T11:24:34.936Z,8.39
2023-03-26T11:27:28.925Z,8.33
2023-03-26T11:30:25.694Z,8.27
2023-03-26T11:33:18.491Z,8.19
2023-03-26T11:36:10.001Z,8.23
2023-03-26T11:38:59.630Z,8.41
2023-03-26T11:41:54.038Z,8.44
2023-03-26T11:44:49.250Z,8.50
2023-03-26T11:47:43.124Z,8.52
2023-03-26T11:50:34.094Z,8.35
2023-03-26T11:53:26.442Z,8.51
2023-03-26T11:56:20.147Z,8.78
2023-03-26T11:59:12.314Z,8.81
2023-03-26T12:02:18.458Z,8.80
2023-03-26T12:05:18.109Z,8.79
2023-03-26T12:08:20.112Z,8.90
2023-03-26T12:11:12.321Z,8.73
2023-03-26T12:14:02.021Z,8.77
2023-03-26T12:17:05.833Z,8.70
2023-03-26T12:19:54.250Z,8.76
2023-03-26T12:22:47.792Z,8.79
2023-03-26T12:25:38.618Z,8.78
2023-03-26T12:28:32.766Z,8.95
2023-03-26T12:31:21.198Z,9.20
2023-03-26T12:34:16.326Z,9.30
2023-03-26T12:37:06.301Z,9.46
2023-03-26T12:40:14.910Z,9.55
2023-03-26T12:44:49.466Z,9.53
2023-03-26T12:47:56.241Z,9.62
2023-03-26T12:49:33.494Z,9.62
2023-03-26T12:52:40.204Z,9.66
2023-03-26T12:55:39.205Z,9.89
2023-03-26T12:58:44.989Z,9.76
2023-03-26T13:01:45.752Z,9.87
2023-03-26T13:05:02.378Z,9.88
2023-03-26T13:08:01.514Z,9.82
2023-03-26T13:10:52.165Z,9.85
2023-03-26T13:14:02.227Z,9.80
2023-03-26T13:16:56.556Z,9.81
2023-03-26T13:19:51.644Z,9.76
2023-03-26T13:22:49.176Z,9.76
2023-03-26T13:25:44.457Z,9.72
2023-03-26T13:28:40.491Z,9.36
2023-03-26T13:31:31.819Z,8.51
2023-03-26T13:34:27.756Z,8.05
2023-03-26T13:37:24.560Z,7.99
2023-03-26T13:40:24.836Z,8.01
2023-03-26T13:43:30.967Z,7.99
2023-03-26T13:46:29.207Z,8.06
2023-03-26T13:49:21.969Z,8.04
2023-03-26T13:52:14.393Z,8.07
2023-03-26T13:55:13.949Z,8.11
2023-03-26T13:58:06.059Z,8.17
2023-03-26T14:01:00.364Z,8.28
2023-03-26T14:03:55.076Z,8.33
2023-03-26T14:06:47.138Z,8.34
2023-03-26T14:09:40.931Z,8.37
2023-03-26T14:12:37.579Z,8.38
2023-03-26T14:15:28.719Z,8.46
2023-03-26T14:18:28.555Z,8.55
2023-03-26T14:21:51.830Z,8.63
2023-03-26T14:25:00.150Z,8.67
2023-03-26T14:28:12.325Z,8.70
2023-03-26T14:31:11.293Z,8.67
2023-03-26T14:34:23.522Z,8.71
2023-03-26T14:37:34.031Z,8.53
2023-03-26T14:40:31.188Z,8.52
2023-03-26T14:43:56.585Z,8.54
2023-03-26T14:46:53.442Z,8.55
2023-03-26T14:50:06.255Z,8.58
2023-03-26T14:53:00.890Z,8.59
2023-03-26T14:56:15.985Z,8.54
2023-03-26T15:00:01.597Z,8.44
2023-03-26T15:03:12.305Z,8.43
2023-03-26T15:06:15.558Z,8.50
2023-03-26T15:09:41.528Z,8.59
2023-03-26T15:12:39.289Z,8.62
2023-03-26T15:15:53.923Z,8.56
2023-03-26T15:19:07.043Z,8.59
2023-03-26T15:22:26.023Z,8.52
2023-03-26T15:25:37.591Z,8.37
2023-03-26T15:29:05.086Z,8.44
2023-03-26T15:32:15.111Z,8.51
2023-03-26T15:35:19.510Z,8.53
2023-03-26T15:38:48.469Z,8.73
2023-03-26T15:42:04.812Z,8.72
2023-03-26T15:45:00.667Z,8.70
2023-03-26T15:47:56.068Z,8.70
2023-03-26T15:50:52.781Z,8.58
2023-03-26T15:53:47.768Z,8.57
2023-03-26T15:56:58.783Z,8.46
2023-03-26T16:00:15.434Z,8.48
2023-03-26T16:03:21.668Z,8.53
2023-03-26T16:06:31.930Z,8.50
2023-03-26T16:09:40.723Z,8.38
2023-03-26T16:12:34.732Z,8.38
2023-03-26T16:15:30.833Z,8.26
2023-03-26T16:18:28.283Z,8.13
2023-03-26T16:21:45.606Z,8.22
2023-03-26T16:24:35.438Z,8.12
2023-03-26T16:27:29.919Z,8.14
2023-03-26T16:30:31.581Z,8.19
2023-03-26T16:33:21.649Z,8.17
2023-03-26T16:36:34.306Z,8.20
2023-03-26T16:39:24.950Z,8.00
2023-03-26T16:42:30.946Z,8.02
2023-03-26T16:45:23.594Z,7.92
2023-03-26T16:48:22.723Z,7.89
2023-03-26T16:51:17.198Z,8.02
2023-03-26T16:54:14.114Z,8.08
2023-03-26T16:57:11.909Z,8.15
2023-03-26T17:00:28.330Z,8.09
2023-03-26T17:03:37.722Z,8.07
2023-03-26T17:06:56.526Z,8.06
2023-03-26T17:10:05.795Z,8.04
2023-03-26T17:13:00.429Z,7.94
2023-03-26T17:15:57.386Z,7.81
2023-03-26T17:18:51.640Z,7.76
2023-03-26T17:21:47.374Z,7.77
2023-03-26T17:24:41.178Z,7.72
2023-03-26T17:28:16.626Z,7.78
2023-03-26T17:31:06.698Z,7.75
2023-03-26T17:33:56.774Z,7.84
2023-03-26T17:36:46.005Z,7.76
2023-03-26T17:40:37.729Z,7.78
2023-03-26T17:43:46.619Z,7.88
2023-03-26T17:46:37.545Z,7.86
2023-03-26T17:49:31.416Z,7.87
2023-03-26T17:52:22.384Z,7.87
2023-03-26T17:55:11.498Z,7.91
2023-03-26T17:58:01.461Z,7.87
2023-03-26T18:00:52.371Z,7.90
2023-03-26T18:03:44.248Z,7.95
2023-03-26T18:06:45.976Z,7.97
2023-03-26T18:09:48.981Z,7.98
2023-03-26T18:12:50.622Z,8.03
2023-03-26T18:15:47.069Z,8.01
2023-03-26T18:18:38.688Z,8.04
2023-03-26T18:21:30.500Z,8.06
2023-03-26T18:24:24.431Z,8.06
2023-03-26T18:27:14.808Z,8.08
2023-03-26T18:30:11.325Z,8.09
2023-03-26T18:33:02.812Z,8.13
2023-03-26T18:35:54.092Z,8.11
2023-03-26T18:38:43.031Z,8.07
2023-03-26T18:41:34.341Z,7.95
2023-03-26T18:44:23.173Z,7.86
2023-03-26T18:47:12.969Z,7.76
2023-03-26T18:50:01.545Z,7.69
2023-03-26T18:52:50.066Z,7.61
2023-03-26T18:55:39.664Z,7.54
2023-03-26T18:58:32.732Z,7.49
2023-03-26T19:01:26.153Z,7.44
2023-03-26T19:04:14.905Z,7.39
2023-03-26T19:07:04.339Z,7.39
2023-03-26T19:09:56.338Z,7.33
2023-03-26T19:12:44.748Z,7.25
2023-03-26T19:15:35.784Z,7.18
2023-03-26T19:18:26.521Z,7.17
2023-03-26T19:21:15.128Z,7.14
2023-03-26T19:24:04.839Z,7.11
2023-03-26T19:26:53.245Z,7.04
2023-03-26T19:29:43.455Z,7.01
2023-03-26T19:32:34.609Z,6.99
2023-03-26T19:35:24.462Z,7.01
2023-03-26T19:38:23.930Z,6.98
2023-03-26T19:41:20.562Z,6.97
2023-03-26T19:44:19.349Z,6.97
2023-03-26T19:47:09.826Z,6.93
2023-03-26T19:50:01.828Z,6.84
2023-03-26T19:53:15.395Z,6.78
2023-03-26T19:56:13.111Z,6.81
2023-03-26T19:59:02.323Z,6.70
2023-03-26T20:01:50.725Z,6.71
2023-03-26T20:04:39.123Z,6.55
2023-03-26T20:07:35.917Z,6.52
2023-03-26T20:10:24.927Z,6.40
2023-03-26T20:13:15.961Z,6.46
2023-03-26T20:16:08.605Z,6.42
2023-03-26T20:18:57.735Z,6.50
2023-03-26T20:21:46.239Z,6.44
2023-03-26T20:24:35.919Z,6.42
2023-03-26T20:27:24.265Z,6.50
2023-03-26T20:30:16.439Z,6.36
2023-03-26T20:33:12.417Z,6.21
2023-03-26T20:36:02.022Z,6.31
2023-03-26T20:38:50.522Z,6.38
2023-03-26T20:41:44.919Z,6.26
2023-03-26T20:44:33.290Z,6.29
2023-03-26T20:47:21.687Z,6.17
2023-03-26T20:50:12.449Z,6.20
2023-03-26T20:53:02.621Z,6.20
2023-03-26T20:55:51.830Z,6.28
2023-03-26T20:58:41.654Z,6.31
2023-03-26T21:01:30.082Z,6.27
2023-03-26T21:04:19.249Z,6.33
2023-03-26T21:07:17.795Z,6.39
2023-03-26T21:10:08.140Z,6.38
2023-03-26T21:12:58.569Z,6.38
2023-03-26T21:15:49.045Z,6.34
2023-03-26T21:18:38.175Z,6.33
2023-03-26T21:21:39.617Z,6.36
2023-03-26T21:24:38.145Z,6.42
2023-03-26T21:27:32.337Z,6.45
2023-03-26T21:30:22.223Z,6.44
2023-03-26T21:33:11.947Z,6.41
2023-03-26T21:36:01.864Z,6.43
2023-03-26T21:38:54.661Z,6.38
2023-03-26T21:41:46.696Z,6.32
2023-03-26T21:44:35.779Z,6.34
2023-03-26T21:47:24.578Z,6.28
2023-03-26T21:50:19.373Z,6.27
2023-03-26T21:53:08.369Z,6.26
2023-03-26T21:56:03.513Z,6.30
2023-03-26T21:58:55.609Z,6.29
2023-03-26T22:01:48.084Z,6.27
2023-03-26T22:04:41.529Z,6.18
2023-03-26T22:07:36.697Z,6.21
2023-03-26T22:10:25.120Z,6.19
2023-03-26T22:13:13.472Z,6.18
2023-03-26T22:16:01.865Z,6.11
2023-03-26T22:18:50.286Z,6.09
2023-03-26T22:21:38.891Z,6.14
2023-03-26T22:24:28.577Z,6.10
2023-03-26T22:27:17.182Z,6.02
2023-03-26T22:30:06.338Z,6.00
2023-03-26T22:32:54.905Z,5.94
2023-03-26T22:35:43.824Z,5.98
2023-03-26T22:38:32.199Z,5.95
2023-03-26T22:41:21.880Z,5.98
2023-03-26T22:44:19.604Z,5.96
2023-03-26T22:47:09.356Z,5.90
2023-03-26T22:49:58.179Z,5.81
2023-03-26T22:52:46.628Z,5.85
2023-03-26T22:55:34.933Z,5.72
2023-03-26T22:58:24.901Z,5.77
2023-03-26T23:01:17.890Z,5.67
2023-03-26T23:04:07.098Z,5.66
2023-03-26T23:06:56.057Z,5.61
2023-03-26T23:09:45.641Z,5.65
2023-03-26T23:12:34.023Z,5.71
2023-03-26T23:15:25.920Z,5.67
2023-03-26T23:18:14.359Z,5.69
2023-03-26T23:21:02.782Z,5.72
2023-03-26T23:23:51.632Z,5.79
2023-03-26T23:26:49.628Z,5.72
2023-03-26T23:29:39.313Z,5.70
2023-03-26T23:32:29.189Z,5.68
2023-03-26T23:35:17.693Z,5.68
2023-03-26T23:38:06.841Z,5.73
2023-03-26T23:40:57.210Z,5.66
2023-03-26T23:43:54.707Z,5.57
2023-03-26T23:46:44.250Z,5.56
2023-03-26T23:49:33.922Z,5.56
2023-03-26T23:52:22.231Z,5.60
2023-03-26T23:55:10.922Z,5.63
2023-03-26T23:57:59.201Z,5.56
